Terminal Aerodrome Forecast
Issued by NWS

Home | Current Version | Previous Version | Text Only | Print | Product List | Glossary On
Versions: 1 2 3 4 5 6 7 8 9 10 11 12 13 14 15
605
FTUS43 KICT 221135 AAA
TAFHUT
TAF AMD
KHUT 221135Z 2212/2312 17010KT P6SM SCT250
     FM221700 18015G22KT P6SM FEW250
     FM230100 17008KT P6SM FEW250
     FM230500 35008KT P6SM SCT200
     FM230800 01013KT P6SM VCSH BKN060=

USA.gov is the U.S. government's official web portal to all federal, state and local government web resources and services.